createdAt,value
2018-09-20T00:01:01.119Z,2.23
2018-09-20T00:03:31.056Z,2.20
2018-09-20T00:06:01.116Z,2.23
2018-09-20T00:08:32.073Z,2.30
2018-09-20T00:11:02.115Z,2.13
2018-09-20T00:13:32.093Z,2.57
2018-09-20T00:16:02.082Z,2.30
2018-09-20T00:18:32.141Z,1.80
2018-09-20T00:21:02.139Z,2.37
2018-09-20T00:23:32.362Z,2.30
2018-09-20T00:26:02.359Z,2.37
2018-09-20T00:28:32.368Z,2.40
2018-09-20T00:31:02.363Z,2.77
2018-09-20T00:33:32.346Z,2.87
2018-09-20T00:36:02.344Z,2.67
2018-09-20T00:38:32.458Z,2.57
2018-09-20T00:41:02.442Z,2.37
2018-09-20T00:43:32.395Z,2.23
2018-09-20T00:46:02.380Z,2.30
2018-09-20T00:48:32.374Z,2.53
2018-09-20T00:51:02.337Z,2.60
2018-09-20T00:53:33.375Z,2.33
2018-09-20T00:56:03.535Z,2.70
2018-09-20T00:58:33.584Z,2.50
2018-09-20T01:01:03.598Z,2.67
2018-09-20T01:03:33.590Z,2.67
2018-09-20T01:06:03.661Z,2.83
2018-09-20T01:08:33.659Z,2.60
2018-09-20T01:11:03.710Z,2.40
2018-09-20T01:13:33.787Z,2.27
2018-09-20T01:16:03.761Z,2.50
2018-09-20T01:18:33.790Z,2.47
2018-09-20T01:21:03.746Z,2.37
2018-09-20T01:23:33.823Z,3.00
2018-09-20T01:26:03.829Z,3.33
2018-09-20T01:28:33.828Z,2.60
2018-09-20T01:31:03.781Z,2.60
2018-09-20T01:33:33.795Z,3.00
2018-09-20T01:36:03.783Z,2.57
2018-09-20T01:38:33.795Z,2.80
2018-09-20T01:41:03.819Z,2.40
2018-09-20T01:43:33.915Z,2.87
2018-09-20T01:46:03.897Z,2.70
2018-09-20T01:48:33.927Z,2.63
2018-09-20T01:51:03.944Z,2.70
2018-09-20T01:53:33.833Z,2.93
2018-09-20T01:56:03.835Z,2.63
2018-09-20T01:58:33.832Z,3.07
2018-09-20T02:01:04.102Z,3.00
2018-09-20T02:03:34.088Z,3.13
2018-09-20T02:06:05.427Z,2.60
2018-09-20T02:08:35.458Z,2.13
2018-09-20T02:11:05.430Z,2.97
2018-09-20T02:13:35.399Z,2.70
2018-09-20T02:16:05.386Z,2.67
2018-09-20T02:18:35.330Z,2.77
2018-09-20T02:21:05.287Z,2.30
2018-09-20T02:23:35.235Z,2.43
2018-09-20T02:26:05.209Z,3.13
2018-09-20T02:28:35.110Z,2.87
2018-09-20T02:31:05.011Z,2.53
2018-09-20T02:33:35.007Z,2.83
2018-09-20T02:36:04.872Z,2.77
2018-09-20T02:38:34.513Z,2.67
2018-09-20T02:41:04.309Z,2.30
2018-09-20T02:43:33.952Z,2.70
2018-09-20T02:46:03.586Z,2.77
2018-09-20T02:48:33.193Z,2.63
2018-09-20T02:51:02.814Z,2.33
2018-09-20T02:53:32.429Z,2.60
2018-09-20T02:56:02.035Z,2.90
2018-09-20T02:58:31.643Z,2.57
2018-09-20T03:01:01.279Z,2.80
2018-09-20T03:03:31.182Z,2.50
2018-09-20T03:06:01.015Z,3.60
2018-09-20T03:08:30.649Z,2.80
2018-09-20T03:11:00.314Z,3.23
2018-09-20T03:13:29.949Z,2.73
2018-09-20T03:15:59.934Z,2.53
2018-09-20T03:18:29.905Z,2.37
2018-09-20T03:20:59.917Z,3.00
2018-09-20T03:23:29.959Z,2.93
2018-09-20T03:25:59.893Z,2.83
2018-09-20T03:28:30.861Z,2.40
2018-09-20T03:31:01.115Z,3.10
2018-09-20T03:33:30.717Z,3.10
2018-09-20T03:36:00.596Z,2.80
2018-09-20T03:38:30.228Z,2.90
2018-09-20T03:40:59.819Z,2.37
2018-09-20T03:43:31.359Z,3.00
2018-09-20T03:46:01.017Z,2.57
2018-09-20T03:48:30.951Z,2.50
2018-09-20T03:51:00.884Z,3.07
2018-09-20T03:53:30.478Z,2.90
2018-09-20T03:56:00.124Z,3.23
2018-09-20T03:58:29.743Z,2.80
2018-09-20T04:00:59.369Z,2.83
2018-09-20T04:03:29.035Z,3.10
2018-09-20T04:05:58.720Z,2.73
2018-09-20T04:08:28.475Z,2.73
2018-09-20T04:10:58.155Z,2.83
2018-09-20T04:13:27.790Z,3.20
2018-09-20T04:15:57.447Z,3.00
2018-09-20T04:18:27.137Z,2.60
2018-09-20T04:20:56.798Z,2.90
2018-09-20T04:23:26.434Z,3.10
2018-09-20T04:25:56.071Z,2.97
2018-09-20T04:28:25.685Z,3.17
2018-09-20T04:30:55.326Z,2.70
2018-09-20T04:33:24.961Z,2.80
2018-09-20T04:35:54.877Z,2.90
2018-09-20T04:38:24.803Z,3.30
2018-09-20T04:40:54.696Z,3.03
2018-09-20T04:43:24.627Z,2.47
2018-09-20T04:45:54.358Z,2.70
2018-09-20T04:48:24.094Z,2.87
2018-09-20T04:50:54.086Z,2.77
2018-09-20T04:53:24.050Z,2.93
2018-09-20T04:55:54.046Z,3.30
2018-09-20T04:58:24.019Z,3.00
2018-09-20T05:00:54.015Z,2.97
2018-09-20T05:03:24.083Z,3.30
2018-09-20T05:05:54.021Z,3.03
2018-09-20T05:08:23.970Z,2.97
2018-09-20T05:10:54.035Z,3.17
2018-09-20T05:13:23.988Z,3.13
2018-09-20T05:15:56.781Z,3.20
2018-09-20T05:18:27.745Z,3.10
2018-09-20T05:20:57.716Z,3.50
2018-09-20T05:23:27.804Z,3.07
2018-09-20T05:25:57.799Z,3.30
2018-09-20T05:28:27.820Z,3.57
2018-09-20T05:30:57.862Z,3.87
2018-09-20T05:33:27.943Z,3.17
2018-09-20T05:35:57.891Z,3.30
2018-09-20T05:38:27.907Z,3.27
2018-09-20T05:40:58.826Z,3.30
2018-09-20T05:43:28.797Z,3.10
2018-09-20T05:46:00.819Z,3.27
2018-09-20T05:49:09.683Z,3.30
2018-09-20T05:51:40.092Z,3.27
2018-09-20T05:54:10.051Z,3.17
2018-09-20T05:56:40.057Z,3.20
2018-09-20T05:59:10.038Z,3.13
2018-09-20T06:01:40.104Z,3.07
2018-09-20T06:04:10.131Z,3.00
2018-09-20T06:06:40.110Z,3.03
2018-09-20T06:09:10.688Z,3.40
2018-09-20T06:11:40.658Z,3.40
2018-09-20T06:14:10.612Z,2.93
2018-09-20T06:16:40.640Z,3.03
2018-09-20T06:19:10.568Z,2.90
2018-09-20T06:21:40.716Z,3.40
2018-09-20T06:24:10.689Z,2.67
2018-09-20T06:26:40.659Z,3.23
2018-09-20T06:29:10.699Z,2.90
2018-09-20T06:31:40.763Z,3.23
2018-09-20T06:34:10.736Z,3.10
2018-09-20T06:36:40.804Z,3.27
2018-09-20T06:39:12.727Z,3.27
2018-09-20T06:41:43.256Z,3.13
2018-09-20T06:44:13.246Z,3.33
2018-09-20T06:46:43.159Z,2.70
2018-09-20T06:49:13.065Z,2.90
2018-09-20T06:51:43.099Z,3.13
2018-09-20T06:54:15.281Z,2.97
2018-09-20T06:56:45.313Z,2.73
2018-09-20T06:59:15.384Z,3.10
2018-09-20T07:01:45.342Z,3.40
2018-09-20T07:04:15.407Z,2.97
2018-09-20T07:06:45.436Z,3.23
2018-09-20T07:09:15.611Z,3.30
2018-09-20T07:11:45.625Z,3.20
2018-09-20T07:14:15.709Z,3.20
2018-09-20T07:16:45.786Z,2.87
2018-09-20T07:19:16.213Z,2.20
2018-09-20T07:21:46.150Z,2.67
2018-09-20T07:24:17.966Z,3.50
2018-09-20T07:26:49.664Z,2.90
2018-09-20T07:29:19.641Z,3.20
2018-09-20T07:31:49.606Z,3.47
2018-09-20T07:34:19.556Z,3.20
2018-09-20T07:36:49.602Z,2.70
2018-09-20T07:39:19.610Z,3.27
2018-09-20T07:41:49.669Z,3.27
2018-09-20T07:44:20.764Z,3.10
2018-09-20T07:46:51.756Z,3.20
2018-09-20T07:49:21.723Z,2.83
2018-09-20T07:51:51.875Z,2.63
2018-09-20T07:54:22.013Z,3.07
2018-09-20T07:56:52.122Z,2.83
2018-09-20T07:59:22.167Z,2.87
2018-09-20T08:01:55.587Z,2.90
2018-09-20T08:04:25.707Z,3.07
2018-09-20T08:06:55.696Z,3.03
2018-09-20T08:09:27.247Z,2.80
2018-09-20T08:11:57.195Z,3.23
2018-09-20T08:14:27.139Z,3.47
2018-09-20T08:16:57.001Z,2.93
2018-09-20T08:19:27.071Z,2.80
2018-09-20T08:21:57.241Z,3.13
2018-09-20T08:24:27.180Z,3.73
2018-09-20T08:26:57.198Z,3.20
2018-09-20T08:29:27.154Z,2.80
2018-09-20T08:31:58.060Z,2.97
2018-09-20T08:34:28.978Z,3.07
2018-09-20T08:36:58.908Z,3.47
2018-09-20T08:39:28.838Z,3.13
2018-09-20T08:41:58.773Z,2.97
2018-09-20T08:44:28.773Z,3.50
2018-09-20T08:46:58.751Z,2.87
2018-09-20T08:49:27.664Z,3.00
2018-09-20T08:51:57.604Z,3.30
2018-09-20T08:54:28.743Z,3.10
2018-09-20T08:56:58.886Z,2.70
2018-09-20T08:59:28.882Z,3.07
2018-09-20T09:02:00.063Z,2.83
2018-09-20T09:04:31.297Z,2.43
2018-09-20T09:07:01.265Z,2.83
2018-09-20T09:09:31.286Z,2.73
2018-09-20T09:12:06.888Z,2.87
2018-09-20T09:14:36.856Z,2.87
2018-09-20T09:17:06.955Z,2.90
2018-09-20T09:19:37.024Z,3.20
2018-09-20T09:22:10.065Z,2.77
2018-09-20T09:24:43.897Z,3.00
2018-09-20T09:27:20.484Z,2.50
2018-09-20T09:29:50.419Z,3.33
2018-09-20T09:32:20.407Z,3.10
2018-09-20T09:34:50.386Z,2.73
2018-09-20T09:37:20.371Z,2.30
2018-09-20T09:39:50.339Z,2.63
2018-09-20T09:42:20.308Z,2.37
2018-09-20T09:44:50.219Z,2.70
2018-09-20T09:47:20.204Z,2.70
2018-09-20T09:49:50.272Z,2.90
2018-09-20T09:52:20.300Z,2.87
2018-09-20T09:54:50.293Z,2.40
2018-09-20T09:57:22.034Z,2.47
2018-09-20T09:59:52.008Z,2.57
2018-09-20T10:02:21.949Z,2.27
2018-09-20T10:04:51.844Z,2.33
2018-09-20T10:07:26.665Z,2.30
2018-09-20T10:09:56.656Z,2.40
2018-09-20T10:12:26.684Z,2.60
2018-09-20T10:14:56.685Z,2.10
2018-09-20T10:17:26.775Z,2.17
2018-09-20T10:19:56.830Z,2.73
2018-09-20T10:22:26.753Z,2.50
2018-09-20T10:24:56.741Z,2.27
2018-09-20T10:27:26.721Z,2.27
2018-09-20T10:29:57.907Z,2.37
2018-09-20T10:32:27.842Z,2.47
2018-09-20T10:34:57.826Z,2.00
2018-09-20T10:37:27.834Z,2.17
2018-09-20T10:39:58.931Z,2.60
2018-09-20T10:42:30.780Z,3.00
2018-09-20T10:45:00.753Z,2.30
2018-09-20T10:47:30.739Z,2.37
2018-09-20T10:50:00.807Z,2.57
2018-09-20T10:52:30.865Z,2.20
2018-09-20T10:55:00.840Z,2.30
2018-09-20T10:57:30.834Z,2.60
2018-09-20T11:00:07.270Z,2.23
2018-09-20T11:02:37.197Z,2.40
2018-09-20T11:05:07.295Z,2.63
2018-09-20T11:07:38.867Z,2.40
2018-09-20T11:10:08.843Z,2.60
2018-09-20T11:12:40.686Z,2.40
2018-09-20T11:15:10.671Z,2.03
2018-09-20T11:17:40.724Z,2.50
2018-09-20T11:20:13.645Z,2.30
2018-09-20T11:22:43.644Z,2.27
2018-09-20T11:25:13.576Z,2.00
2018-09-20T11:27:43.611Z,2.07
2018-09-20T11:30:15.252Z,2.10
2018-09-20T11:32:45.266Z,2.30
2018-09-20T11:35:15.281Z,2.10
2018-09-20T11:37:45.262Z,2.17
2018-09-20T11:40:18.804Z,2.20
2018-09-20T11:42:48.751Z,2.10
2018-09-20T11:45:18.765Z,1.80
2018-09-20T11:47:48.830Z,2.27
2018-09-20T11:50:18.882Z,2.00
2018-09-20T11:52:49.006Z,1.90
2018-09-20T11:55:20.870Z,2.00
2018-09-20T11:57:50.834Z,2.10
2018-09-20T12:00:24.923Z,1.97
2018-09-20T12:02:54.903Z,2.10
2018-09-20T12:05:24.941Z,2.07
2018-09-20T12:07:54.954Z,2.37
2018-09-20T12:10:26.378Z,1.93
2018-09-20T12:12:56.307Z,2.37
2018-09-20T12:15:26.357Z,2.10
2018-09-20T12:17:56.407Z,2.10
2018-09-20T12:20:28.113Z,2.27
2018-09-20T12:22:59.387Z,1.80
2018-09-20T12:25:29.561Z,2.43
2018-09-20T12:28:01.110Z,1.90
2018-09-20T12:30:31.126Z,1.90
2018-09-20T12:33:01.127Z,2.40
2018-09-20T12:35:31.420Z,2.40
2018-09-20T12:38:01.302Z,2.03
2018-09-20T12:40:31.213Z,1.97
2018-09-20T12:43:03.000Z,2.37
2018-09-20T12:45:32.919Z,2.20
2018-09-20T12:48:03.697Z,1.90
2018-09-20T12:50:33.656Z,1.87
2018-09-20T12:53:04.027Z,1.97
2018-09-20T12:55:33.947Z,1.90
2018-09-20T12:58:03.897Z,2.00
2018-09-20T13:00:36.002Z,1.83
2018-09-20T13:03:06.097Z,2.43
2018-09-20T13:05:36.664Z,1.50
2018-09-20T13:08:06.607Z,1.93
2018-09-20T13:10:37.389Z,1.80
2018-09-20T13:13:07.490Z,1.80
2018-09-20T13:15:37.538Z,1.60
2018-09-20T13:18:07.758Z,1.70
2018-09-20T13:20:37.974Z,1.80
2018-09-20T13:23:11.145Z,1.70
2018-09-20T13:25:41.671Z,1.63
2018-09-20T13:28:12.023Z,1.57
2018-09-20T13:30:43.341Z,1.50
2018-09-20T13:33:13.364Z,2.00
2018-09-20T13:35:43.323Z,1.33
2018-09-20T13:38:13.652Z,1.77
2018-09-20T13:40:43.805Z,1.50
2018-09-20T13:43:15.500Z,1.50
2018-09-20T13:45:45.503Z,1.73
2018-09-20T13:48:15.636Z,1.43
2018-09-20T13:50:45.627Z,1.87
2018-09-20T13:53:16.664Z,1.70
2018-09-20T13:55:46.627Z,1.90
2018-09-20T13:58:16.598Z,1.50
2018-09-20T14:00:46.614Z,2.00
2018-09-20T14:03:16.590Z,1.80
2018-09-20T14:05:46.894Z,1.60
2018-09-20T14:08:16.851Z,1.30
2018-09-20T14:10:47.838Z,1.30
2018-09-20T14:13:17.837Z,1.40
2018-09-20T14:15:48.014Z,1.63
2018-09-20T14:18:18.054Z,1.13
2018-09-20T14:20:48.111Z,1.30
2018-09-20T14:23:18.089Z,1.30
2018-09-20T14:25:49.006Z,1.30
2018-09-20T14:28:18.989Z,1.40
2018-09-20T14:30:48.989Z,1.63
2018-09-20T14:33:18.983Z,1.23
2018-09-20T14:35:49.046Z,1.10
2018-09-20T14:38:19.099Z,1.40
2018-09-20T14:40:49.070Z,1.40
2018-09-20T14:43:18.941Z,1.20
2018-09-20T14:45:49.891Z,1.10
2018-09-20T14:48:19.904Z,1.33
2018-09-20T14:50:49.913Z,1.43
2018-09-20T14:53:19.911Z,1.20
2018-09-20T14:55:49.940Z,1.40
2018-09-20T14:58:19.969Z,1.10
2018-09-20T15:00:49.987Z,1.30
2018-09-20T15:03:20.292Z,1.43
2018-09-20T15:05:50.322Z,1.40
2018-09-20T15:08:20.367Z,1.67
2018-09-20T15:10:50.339Z,1.37
2018-09-20T15:13:20.359Z,1.30
2018-09-20T15:15:50.360Z,1.50
2018-09-20T15:18:20.332Z,1.33
2018-09-20T15:20:50.317Z,1.40
2018-09-20T15:23:20.365Z,1.70
2018-09-20T15:25:51.563Z,1.50
2018-09-20T15:28:21.652Z,1.60
2018-09-20T15:30:51.637Z,1.60
2018-09-20T15:33:21.619Z,1.33
2018-09-20T15:35:51.641Z,1.43
2018-09-20T15:38:21.663Z,1.27
2018-09-20T15:40:51.675Z,1.70
2018-09-20T15:43:21.715Z,1.33
2018-09-20T15:45:51.931Z,1.63
2018-09-20T15:48:21.901Z,1.33
2018-09-20T15:50:51.911Z,1.40
2018-09-20T15:53:21.846Z,1.60
2018-09-20T15:55:51.806Z,1.50
2018-09-20T15:58:21.924Z,1.30
2018-09-20T16:00:51.875Z,1.33
2018-09-20T16:03:21.853Z,1.20
2018-09-20T16:05:51.995Z,1.30
2018-09-20T16:08:21.943Z,1.20
2018-09-20T16:10:52.110Z,1.50
2018-09-20T16:13:22.081Z,1.60
2018-09-20T16:15:52.056Z,1.77
2018-09-20T16:18:22.069Z,1.37
2018-09-20T16:20:52.007Z,1.50
2018-09-20T16:23:21.959Z,1.30
2018-09-20T16:25:51.950Z,1.57
2018-09-20T16:28:40.000Z,1.30
2018-09-20T16:32:00.662Z,1.70
2018-09-20T16:35:13.831Z,1.20
2018-09-20T16:37:59.192Z,1.30
2018-09-20T16:40:32.891Z,1.60
2018-09-20T16:43:04.656Z,1.30
2018-09-20T16:45:34.712Z,1.43
2018-09-20T16:48:04.774Z,1.67
2018-09-20T16:50:34.817Z,1.47
2018-09-20T16:53:07.100Z,1.50
2018-09-20T16:55:37.199Z,1.90
2018-09-20T16:58:07.244Z,1.60
2018-09-20T17:00:37.167Z,1.70
2018-09-20T17:03:07.355Z,1.80
2018-09-20T17:05:37.383Z,1.60
2018-09-20T17:08:07.352Z,1.57
2018-09-20T17:10:37.391Z,1.80
2018-09-20T17:13:07.569Z,2.17
2018-09-20T17:15:39.492Z,1.70
2018-09-20T17:18:09.464Z,1.90
2018-09-20T17:20:39.691Z,1.73
2018-09-20T17:23:09.817Z,1.40
2018-09-20T17:25:39.820Z,1.73
2018-09-20T17:28:09.994Z,1.30
2018-09-20T17:30:41.078Z,1.37
2018-09-20T17:33:13.326Z,1.50
2018-09-20T17:35:43.787Z,1.63
2018-09-20T17:38:15.359Z,1.37
2018-09-20T17:40:47.594Z,1.70
2018-09-20T17:43:20.752Z,1.57
2018-09-20T17:45:50.833Z,1.30
2018-09-20T17:48:20.934Z,1.43
2018-09-20T17:50:51.408Z,1.70
2018-09-20T17:53:22.037Z,1.47
2018-09-20T17:55:52.812Z,1.77
2018-09-20T17:58:23.490Z,1.47
2018-09-20T18:00:53.520Z,1.70
2018-09-20T18:03:23.540Z,1.50
2018-09-20T18:05:53.604Z,1.53
2018-09-20T18:08:23.740Z,1.53
2018-09-20T18:10:53.862Z,1.60
2018-09-20T18:13:23.937Z,1.57
2018-09-20T18:15:53.947Z,2.00
2018-09-20T18:18:24.206Z,1.80
2018-09-20T18:20:54.115Z,2.15
2018-09-20T18:23:24.200Z,2.07
2018-09-20T18:25:54.329Z,1.70
2018-09-20T18:28:24.322Z,1.80
2018-09-20T18:30:54.367Z,1.67
2018-09-20T18:33:24.452Z,1.73
2018-09-20T18:35:54.502Z,1.83
2018-09-20T18:38:24.603Z,1.77
2018-09-20T18:40:54.604Z,1.77
2018-09-20T18:43:24.629Z,1.70
2018-09-20T18:45:54.671Z,1.70
2018-09-20T18:48:25.703Z,1.50
2018-09-20T18:50:55.676Z,1.90
2018-09-20T18:53:25.654Z,1.70
2018-09-20T18:55:55.669Z,2.00
2018-09-20T18:58:25.664Z,1.17
2018-09-20T19:00:57.848Z,1.80
2018-09-20T19:03:28.162Z,1.80
2018-09-20T19:05:58.195Z,1.70
2018-09-20T19:08:28.187Z,1.80
2018-09-20T19:10:58.224Z,1.70
2018-09-20T19:13:28.237Z,1.50
2018-09-20T19:15:58.264Z,1.70
2018-09-20T19:18:28.285Z,1.70
2018-09-20T19:20:58.349Z,1.70
2018-09-20T19:23:28.274Z,1.63
2018-09-20T19:25:58.322Z,1.80
2018-09-20T19:28:28.346Z,1.70
2018-09-20T19:30:58.408Z,1.33
2018-09-20T19:33:28.349Z,1.73
2018-09-20T19:35:58.410Z,1.80
2018-09-20T19:38:28.478Z,1.90
2018-09-20T19:40:58.433Z,1.73
2018-09-20T19:43:28.466Z,1.83
2018-09-20T19:45:59.511Z,2.00
2018-09-20T19:48:29.607Z,1.60
2018-09-20T19:50:59.691Z,1.80
2018-09-20T19:53:29.668Z,1.70
2018-09-20T19:55:59.730Z,1.60
2018-09-20T19:58:29.771Z,1.57
2018-09-20T20:00:59.769Z,1.53
2018-09-20T20:03:29.824Z,1.70
2018-09-20T20:05:59.887Z,1.77
2018-09-20T20:08:29.860Z,1.83
2018-09-20T20:10:59.944Z,1.73
2018-09-20T20:13:30.135Z,2.20
2018-09-20T20:16:00.190Z,1.80
2018-09-20T20:18:32.282Z,1.63
2018-09-20T20:21:02.279Z,1.80
2018-09-20T20:23:32.273Z,1.90
2018-09-20T20:26:02.333Z,1.80
2018-09-20T20:28:32.497Z,1.73
2018-09-20T20:31:02.501Z,1.83
2018-09-20T20:33:32.480Z,1.90
2018-09-20T20:36:03.432Z,1.60
2018-09-20T20:38:33.403Z,1.97
2018-09-20T20:41:03.407Z,1.73
2018-09-20T20:43:33.373Z,1.90
2018-09-20T20:46:03.381Z,1.67
2018-09-20T20:48:33.382Z,1.77
2018-09-20T20:51:03.317Z,2.23
2018-09-20T20:53:33.331Z,1.87
2018-09-20T20:56:03.308Z,1.97
2018-09-20T20:58:33.425Z,1.67
2018-09-20T21:01:03.362Z,1.70
2018-09-20T21:03:33.374Z,1.90
2018-09-20T21:06:03.334Z,2.27
2018-09-20T21:08:33.380Z,2.30
2018-09-20T21:11:03.353Z,2.20
2018-09-20T21:13:33.326Z,1.70
2018-09-20T21:16:03.202Z,1.90
2018-09-20T21:18:33.210Z,2.00
2018-09-20T21:21:03.212Z,1.67
2018-09-20T21:23:33.195Z,2.13
2018-09-20T21:26:03.172Z,2.20
2018-09-20T21:28:33.207Z,2.00
2018-09-20T21:31:03.186Z,2.10
2018-09-20T21:33:33.168Z,2.10
2018-09-20T21:36:03.118Z,2.00
2018-09-20T21:38:33.057Z,1.90
2018-09-20T21:41:03.013Z,1.77
2018-09-20T21:43:33.568Z,2.33
2018-09-20T21:46:03.539Z,2.23
2018-09-20T21:48:33.551Z,1.93
2018-09-20T21:51:04.338Z,2.00
2018-09-20T21:53:34.225Z,2.07
2018-09-20T21:56:04.212Z,2.03
2018-09-20T21:58:36.263Z,2.20
2018-09-20T22:01:06.237Z,1.80
2018-09-20T22:03:36.262Z,2.00
2018-09-20T22:06:06.249Z,1.97
2018-09-20T22:08:36.239Z,2.20
2018-09-20T22:11:06.358Z,2.00
2018-09-20T22:13:36.347Z,1.90
2018-09-20T22:16:06.556Z,1.60
2018-09-20T22:18:36.512Z,2.30
2018-09-20T22:21:06.413Z,1.77
2018-09-20T22:23:36.399Z,1.90
2018-09-20T22:26:06.376Z,2.10
2018-09-20T22:28:36.486Z,1.87
2018-09-20T22:31:06.891Z,1.97
2018-09-20T22:33:37.768Z,2.10
2018-09-20T22:36:07.618Z,1.90
2018-09-20T22:38:37.547Z,2.00
2018-09-20T22:41:07.628Z,1.90
2018-09-20T22:43:37.561Z,2.30
2018-09-20T22:46:07.566Z,2.20
2018-09-20T22:48:37.455Z,2.40
2018-09-20T22:51:07.669Z,2.43
2018-09-20T22:53:37.807Z,2.00
2018-09-20T22:56:07.838Z,1.90
2018-09-20T22:58:37.833Z,2.10
2018-09-20T23:01:08.039Z,2.20
2018-09-20T23:03:37.970Z,2.20
2018-09-20T23:06:07.635Z,2.30
2018-09-20T23:08:38.649Z,2.13
2018-09-20T23:11:08.615Z,2.20
2018-09-20T23:13:38.623Z,2.27
2018-09-20T23:16:08.584Z,2.00
2018-09-20T23:18:38.605Z,2.20
2018-09-20T23:21:08.643Z,2.13
2018-09-20T23:23:38.626Z,2.17
2018-09-20T23:26:08.608Z,1.80
2018-09-20T23:28:38.567Z,2.30
2018-09-20T23:31:08.572Z,2.43
2018-09-20T23:33:38.564Z,1.97
2018-09-20T23:36:08.526Z,2.10
2018-09-20T23:38:38.501Z,2.30
2018-09-20T23:41:08.474Z,2.07
2018-09-20T23:43:38.402Z,1.87
2018-09-20T23:46:08.436Z,2.30
2018-09-20T23:48:38.379Z,2.27
2018-09-20T23:51:08.369Z,2.20
2018-09-20T23:53:38.311Z,2.33
2018-09-20T23:56:08.301Z,2.10
2018-09-20T23:58:38.292Z,2.20
